Time;durP1;ratioP1;P1;durP2;ratioP2;P2;SDS_P1;SDS_P2;PMS_P1;PMS_P2;Temp;Humidity;BMP_temperature;BMP_pressure;BME280_temperature;BME280_humidity;BME280_pressure;Samples;Min_cycle;Max_cycle;Signal;HPM_P1;HPM_P2
2023/03/18 00:01:02;;;;;;;3.77;3.17;;;;;;;;;;5094613;28;20420;-43
2023/03/18 00:03:28;;;;;;;4.10;3.57;;;;;;;;;;5095796;28;21186;-44
2023/03/18 00:06:02;;;;;;;3.40;2.60;;;;;;;;;;5095649;28;20494;-44
2023/03/18 00:08:28;;;;;;;4.23;2.70;;;;;;;;;;5098213;28;20474;-46
2023/03/18 00:10:55;;;;;;;5.80;2.97;;;;;;;;;;5094527;28;20911;-43
2023/03/18 00:13:21;;;;;;;3.83;3.03;;;;;;;;;;5099877;28;20914;-43
2023/03/18 00:15:49;;;;;;;10.73;3.53;;;;;;;;;;5092804;28;20517;-44
2023/03/18 00:18:15;;;;;;;3.07;2.87;;;;;;;;;;5098102;28;20920;-44
2023/03/18 00:20:41;;;;;;;5.27;3.30;;;;;;;;;;5085557;28;20508;-43
2023/03/18 00:23:08;;;;;;;6.37;3.20;;;;;;;;;;5090933;28;20433;-42
2023/03/18 00:25:34;;;;;;;11.43;3.97;;;;;;;;;;5090385;28;20412;-46
2023/03/18 00:28:01;;;;;;;5.03;3.33;;;;;;;;;;5094189;28;20403;-43
2023/03/18 00:30:27;;;;;;;4.37;3.10;;;;;;;;;;5093891;28;20900;-43
2023/03/18 00:32:53;;;;;;;3.67;3.30;;;;;;;;;;5101559;28;20622;-43
2023/03/18 00:35:19;;;;;;;3.70;3.07;;;;;;;;;;5095141;28;20916;-45
2023/03/18 00:37:47;;;;;;;3.80;3.10;;;;;;;;;;5095424;28;20411;-42
2023/03/18 00:40:19;;;;;;;4.90;2.90;;;;;;;;;;5092967;28;20968;-44
2023/03/18 00:42:50;;;;;;;5.73;3.30;;;;;;;;;;5097552;28;20828;-45
2023/03/18 00:45:16;;;;;;;4.43;2.47;;;;;;;;;;5085940;28;20533;-43
2023/03/18 00:47:43;;;;;;;5.93;3.57;;;;;;;;;;5095133;28;20486;-43
2023/03/18 00:50:10;;;;;;;9.33;3.53;;;;;;;;;;5092060;28;20442;-43
2023/03/18 00:52:36;;;;;;;3.20;2.90;;;;;;;;;;5098891;28;20464;-42
2023/03/18 00:55:03;;;;;;;3.40;3.10;;;;;;;;;;5094115;28;20411;-42
2023/03/18 00:57:29;;;;;;;3.93;3.37;;;;;;;;;;5093392;28;20884;-43
2023/03/18 00:59:57;;;;;;;8.17;3.70;;;;;;;;;;5094401;28;20423;-43
2023/03/18 01:02:23;;;;;;;10.00;3.70;;;;;;;;;;5093719;28;20924;-43
2023/03/18 01:04:50;;;;;;;4.80;2.87;;;;;;;;;;5093116;28;20461;-43
2023/03/18 01:07:16;;;;;;;4.90;2.93;;;;;;;;;;5095752;28;20454;-43
2023/03/18 01:09:42;;;;;;;7.80;2.97;;;;;;;;;;5093156;28;20403;-43
2023/03/18 01:12:08;;;;;;;5.43;3.50;;;;;;;;;;5094421;28;20565;-43
2023/03/18 01:14:35;;;;;;;3.50;3.20;;;;;;;;;;5091559;28;20479;-42
2023/03/18 01:17:01;;;;;;;3.90;3.50;;;;;;;;;;5084985;28;20458;-42
2023/03/18 01:19:28;;;;;;;7.23;3.13;;;;;;;;;;5083476;28;20417;-42
2023/03/18 01:21:54;;;;;;;5.93;3.63;;;;;;;;;;5090536;28;20400;-42
2023/03/18 01:24:21;;;;;;;7.33;3.70;;;;;;;;;;5094123;28;20772;-42
2023/03/18 01:26:47;;;;;;;7.70;3.63;;;;;;;;;;5093915;28;20412;-42
2023/03/18 01:29:13;;;;;;;7.90;3.93;;;;;;;;;;5094074;28;20419;-43
2023/03/18 01:31:39;;;;;;;4.80;3.27;;;;;;;;;;5093072;28;20541;-43
2023/03/18 01:34:06;;;;;;;10.70;4.47;;;;;;;;;;5093513;28;20455;-43
2023/03/18 01:36:32;;;;;;;6.50;3.37;;;;;;;;;;5092808;28;20419;-42
2023/03/18 01:38:58;;;;;;;3.67;2.83;;;;;;;;;;5093643;28;20405;-43
2023/03/18 01:41:25;;;;;;;4.63;3.13;;;;;;;;;;5093035;28;20487;-43
2023/03/18 01:43:53;;;;;;;8.67;3.60;;;;;;;;;;5100986;28;20855;-42
2023/03/18 01:46:30;;;;;;;15.63;3.90;;;;;;;;;;5093689;28;20420;-43
2023/03/18 01:48:56;;;;;;;3.60;3.30;;;;;;;;;;5089000;28;20524;-42
2023/03/18 01:51:23;;;;;;;6.63;3.90;;;;;;;;;;5086904;28;20420;-44
2023/03/18 01:53:50;;;;;;;5.00;3.40;;;;;;;;;;5090576;28;20460;-43
2023/03/18 01:56:16;;;;;;;8.90;3.90;;;;;;;;;;5090666;28;20433;-43
2023/03/18 01:58:44;;;;;;;4.87;3.00;;;;;;;;;;5093338;28;20408;-46
2023/03/18 02:01:24;;;;;;;4.30;3.23;;;;;;;;;;5092164;28;20411;-43
2023/03/18 02:03:51;;;;;;;8.90;3.23;;;;;;;;;;5097879;28;20789;-43
2023/03/18 02:06:18;;;;;;;6.10;3.70;;;;;;;;;;5092685;28;20749;-44
2023/03/18 02:08:44;;;;;;;6.73;3.93;;;;;;;;;;5099024;28;20507;-43
2023/03/18 02:11:10;;;;;;;8.53;3.10;;;;;;;;;;5092714;28;20999;-42
2023/03/18 02:13:38;;;;;;;5.90;2.90;;;;;;;;;;5098616;28;20467;-43
2023/03/18 02:16:09;;;;;;;6.47;3.60;;;;;;;;;;5084915;28;20424;-45
2023/03/18 02:18:41;;;;;;;5.20;3.37;;;;;;;;;;5092069;28;20416;-43
2023/03/18 02:21:13;;;;;;;4.87;4.03;;;;;;;;;;5092287;28;20405;-43
2023/03/18 02:23:57;;;;;;;6.53;3.63;;;;;;;;;;5092770;28;20428;-44
2023/03/18 02:26:27;;;;;;;6.10;3.20;;;;;;;;;;5084810;28;20450;-43
2023/03/18 02:28:56;;;;;;;7.83;3.40;;;;;;;;;;5096808;28;20451;-44
2023/03/18 02:31:22;;;;;;;4.20;3.70;;;;;;;;;;5092209;28;20438;-42
2023/03/18 02:33:48;;;;;;;4.77;3.40;;;;;;;;;;5096214;28;21000;-42
2023/03/18 02:36:17;;;;;;;4.87;3.77;;;;;;;;;;5092632;28;20406;-43
2023/03/18 02:38:44;;;;;;;5.73;3.60;;;;;;;;;;5092692;28;20835;-43
2023/03/18 02:41:18;;;;;;;3.93;3.57;;;;;;;;;;5091920;28;20537;-43
2023/03/18 02:43:44;;;;;;;11.43;3.60;;;;;;;;;;5092315;28;20437;-42
2023/03/18 02:46:30;;;;;;;4.73;3.50;;;;;;;;;;5091825;28;20804;-43
2023/03/18 02:48:58;;;;;;;10.97;3.90;;;;;;;;;;5092408;28;20944;-45
2023/03/18 02:51:25;;;;;;;6.40;4.17;;;;;;;;;;5091857;28;20442;-43
2023/03/18 02:53:52;;;;;;;8.70;3.63;;;;;;;;;;5095563;28;20552;-46
2023/03/18 02:56:18;;;;;;;8.10;3.80;;;;;;;;;;5089134;28;20432;-43
2023/03/18 02:58:44;;;;;;;5.30;3.40;;;;;;;;;;5089106;28;20430;-43
2023/03/18 03:01:10;;;;;;;5.43;3.63;;;;;;;;;;5090824;28;20408;-43
2023/03/18 03:03:37;;;;;;;6.27;4.03;;;;;;;;;;5092531;28;20495;-42
2023/03/18 03:06:03;;;;;;;6.97;3.97;;;;;;;;;;5092081;28;20523;-42
2023/03/18 03:08:29;;;;;;;11.23;4.60;;;;;;;;;;5092130;28;20412;-42
2023/03/18 03:10:56;;;;;;;5.87;3.63;;;;;;;;;;5091466;28;20461;-43
2023/03/18 03:13:22;;;;;;;5.70;3.93;;;;;;;;;;5094215;28;20841;-42
2023/03/18 03:15:48;;;;;;;4.87;3.50;;;;;;;;;;5091311;28;20916;-43
2023/03/18 03:18:15;;;;;;;5.87;4.30;;;;;;;;;;5094165;28;20775;-45
2023/03/18 03:20:42;;;;;;;8.97;4.33;;;;;;;;;;5091162;28;20409;-43
2023/03/18 03:23:09;;;;;;;10.13;4.10;;;;;;;;;;5083448;28;20485;-43
2023/03/18 03:25:36;;;;;;;5.43;4.93;;;;;;;;;;5091803;28;20455;-43
2023/03/18 03:28:03;;;;;;;10.47;4.63;;;;;;;;;;5088244;28;20482;-43
2023/03/18 03:30:29;;;;;;;12.10;4.90;;;;;;;;;;5089763;28;20435;-42
2023/03/18 03:32:55;;;;;;;6.80;3.70;;;;;;;;;;5089933;28;20455;-42
2023/03/18 03:35:22;;;;;;;8.13;4.33;;;;;;;;;;5091608;28;20440;-42
2023/03/18 03:37:48;;;;;;;8.47;4.60;;;;;;;;;;5092567;28;20418;-44
2023/03/18 03:40:15;;;;;;;4.47;3.97;;;;;;;;;;5090956;28;20412;-43
2023/03/18 03:42:42;;;;;;;8.07;4.20;;;;;;;;;;5091641;28;20435;-43
2023/03/18 03:45:08;;;;;;;11.30;4.87;;;;;;;;;;5091956;28;20411;-43
2023/03/18 03:47:35;;;;;;;9.53;4.60;;;;;;;;;;5087481;28;20451;-43
2023/03/18 03:50:01;;;;;;;8.10;4.83;;;;;;;;;;5091169;28;20407;-46
2023/03/18 03:52:27;;;;;;;12.90;5.37;;;;;;;;;;5090932;28;20866;-45
2023/03/18 03:54:55;;;;;;;6.13;4.77;;;;;;;;;;5091301;28;20904;-43
2023/03/18 03:57:22;;;;;;;6.47;4.70;;;;;;;;;;5088647;28;20432;-43
2023/03/18 03:59:49;;;;;;;5.40;4.90;;;;;;;;;;5092787;28;20836;-43
2023/03/18 04:02:15;;;;;;;7.80;5.07;;;;;;;;;;5090873;28;20931;-43
2023/03/18 04:04:41;;;;;;;8.27;5.00;;;;;;;;;;5091473;28;20761;-43
2023/03/18 04:07:07;;;;;;;10.23;5.37;;;;;;;;;;5091373;28;20872;-43
2023/03/18 04:09:35;;;;;;;7.60;4.90;;;;;;;;;;5099170;28;20403;-42
2023/03/18 04:12:01;;;;;;;7.93;4.67;;;;;;;;;;5090181;28;20419;-43
2023/03/18 04:14:27;;;;;;;13.33;5.93;;;;;;;;;;5090416;28;20459;-44
2023/03/18 04:16:56;;;;;;;8.30;5.53;;;;;;;;;;5091081;28;20412;-43
2023/03/18 04:19:22;;;;;;;6.83;5.20;;;;;;;;;;5091723;28;20407;-45
2023/03/18 04:21:48;;;;;;;6.00;4.83;;;;;;;;;;5089441;28;20416;-45
2023/03/18 04:24:15;;;;;;;8.20;5.10;;;;;;;;;;5090966;28;20422;-45
2023/03/18 04:26:41;;;;;;;9.37;5.70;;;;;;;;;;5089934;28;20990;-45
2023/03/18 04:29:07;;;;;;;12.43;6.30;;;;;;;;;;5088856;28;20519;-45
2023/03/18 04:31:33;;;;;;;7.40;4.90;;;;;;;;;;5086849;28;20404;-46
2023/03/18 04:33:59;;;;;;;8.53;6.10;;;;;;;;;;5091025;28;20579;-45
2023/03/18 04:36:25;;;;;;;13.67;6.00;;;;;;;;;;5091235;28;20911;-46
2023/03/18 04:38:51;;;;;;;6.10;5.50;;;;;;;;;;5086419;28;20938;-44
2023/03/18 04:41:17;;;;;;;15.97;7.10;;;;;;;;;;5094353;28;20429;-45
2023/03/18 04:43:43;;;;;;;7.60;5.40;;;;;;;;;;5092045;28;20435;-44
2023/03/18 04:46:10;;;;;;;11.47;6.17;;;;;;;;;;5094120;28;20937;-45
2023/03/18 04:48:37;;;;;;;7.30;6.30;;;;;;;;;;5090307;28;20972;-45
2023/03/18 04:51:03;;;;;;;8.90;6.17;;;;;;;;;;5094104;28;20419;-45
2023/03/18 04:53:30;;;;;;;7.50;5.57;;;;;;;;;;5094231;28;20458;-45
2023/03/18 04:55:56;;;;;;;22.37;6.10;;;;;;;;;;5094598;28;20415;-45
2023/03/18 04:58:22;;;;;;;13.60;6.17;;;;;;;;;;5088551;28;20477;-45
2023/03/18 05:00:48;;;;;;;8.83;6.27;;;;;;;;;;5093747;28;20616;-45
2023/03/18 05:03:15;;;;;;;9.07;5.70;;;;;;;;;;5094365;28;20514;-44
2023/03/18 05:05:41;;;;;;;7.03;6.27;;;;;;;;;;5094520;28;20403;-45
2023/03/18 05:08:06;;;;;;;5.50;4.93;;;;;;;;;;5094297;28;20404;-45
2023/03/18 05:10:34;;;;;;;8.00;6.10;;;;;;;;;;5093807;28;20501;-45
2023/03/18 05:13:00;;;;;;;12.20;5.90;;;;;;;;;;5094221;28;20872;-45
2023/03/18 05:15:26;;;;;;;6.20;5.60;;;;;;;;;;5094247;28;20454;-45
2023/03/18 05:17:52;;;;;;;10.30;6.83;;;;;;;;;;5094120;28;20412;-45
2023/03/18 05:20:19;;;;;;;17.67;6.00;;;;;;;;;;5093279;28;20408;-45
2023/03/18 05:22:45;;;;;;;14.13;6.20;;;;;;;;;;5094174;28;20438;-45
2023/03/18 05:25:11;;;;;;;8.80;5.87;;;;;;;;;;5094228;28;20404;-45
2023/03/18 05:27:37;;;;;;;15.50;6.17;;;;;;;;;;5089864;28;20428;-45
2023/03/18 05:30:06;;;;;;;9.70;6.70;;;;;;;;;;5092056;28;20809;-45
2023/03/18 05:32:33;;;;;;;11.50;5.53;;;;;;;;;;5087343;28;20950;-45
2023/03/18 05:34:59;;;;;;;6.33;5.70;;;;;;;;;;5093955;28;20437;-45
2023/03/18 05:37:25;;;;;;;7.93;5.63;;;;;;;;;;5093948;28;20407;-45
2023/03/18 05:39:52;;;;;;;7.10;5.83;;;;;;;;;;5093634;28;20903;-45
2023/03/18 05:42:18;;;;;;;7.60;6.00;;;;;;;;;;5093266;28;20420;-45
2023/03/18 05:44:44;;;;;;;12.73;5.83;;;;;;;;;;5093752;28;20946;-45
2023/03/18 05:47:11;;;;;;;6.83;5.13;;;;;;;;;;5093749;28;20423;-45
2023/03/18 05:49:37;;;;;;;6.60;5.43;;;;;;;;;;5093529;28;20418;-45
2023/03/18 05:52:03;;;;;;;6.20;5.40;;;;;;;;;;5092082;28;20430;-45
2023/03/18 05:54:29;;;;;;;10.40;5.17;;;;;;;;;;5093530;28;20463;-44
2023/03/18 05:56:55;;;;;;;6.90;5.00;;;;;;;;;;5093535;28;20767;-45
2023/03/18 05:59:22;;;;;;;6.60;5.43;;;;;;;;;;5086609;28;20503;-45
2023/03/18 06:01:48;;;;;;;8.93;5.60;;;;;;;;;;5089952;28;20409;-45
2023/03/18 06:04:16;;;;;;;9.97;7.27;;;;;;;;;;5093461;28;20396;-45
2023/03/18 06:06:42;;;;;;;7.70;6.20;;;;;;;;;;5093312;28;20422;-45
2023/03/18 06:09:09;;;;;;;11.00;5.87;;;;;;;;;;5093270;28;20436;-45
2023/03/18 06:11:35;;;;;;;8.03;5.23;;;;;;;;;;5087578;28;20416;-45
2023/03/18 06:14:03;;;;;;;8.20;5.50;;;;;;;;;;5092824;28;20468;-45
2023/03/18 06:16:30;;;;;;;6.20;5.50;;;;;;;;;;5093084;28;20426;-44
2023/03/18 06:18:56;;;;;;;11.07;6.20;;;;;;;;;;5092897;28;20905;-45
2023/03/18 06:21:23;;;;;;;5.60;5.00;;;;;;;;;;5092392;28;20475;-45
2023/03/18 06:23:49;;;;;;;11.67;6.20;;;;;;;;;;5092979;28;20459;-44
2023/03/18 06:26:15;;;;;;;6.60;5.20;;;;;;;;;;5087999;28;20513;-45
2023/03/18 06:28:41;;;;;;;6.43;4.60;;;;;;;;;;5085169;28;20461;-45
2023/03/18 06:31:09;;;;;;;7.13;5.50;;;;;;;;;;5091333;28;20455;-45
2023/03/18 06:33:35;;;;;;;6.00;5.20;;;;;;;;;;5092768;28;20468;-44
2023/03/18 06:36:01;;;;;;;7.50;5.17;;;;;;;;;;5088856;28;20412;-45
2023/03/18 06:38:27;;;;;;;6.30;5.20;;;;;;;;;;5092815;28;20412;-44
2023/03/18 06:40:54;;;;;;;5.27;4.77;;;;;;;;;;5092019;28;20400;-45
2023/03/18 06:43:20;;;;;;;7.57;5.33;;;;;;;;;;5089872;28;20420;-45
2023/03/18 06:45:46;;;;;;;6.10;5.13;;;;;;;;;;5095290;28;20417;-44
2023/03/18 06:48:12;;;;;;;5.57;4.80;;;;;;;;;;5090661;28;20424;-45
2023/03/18 06:50:38;;;;;;;7.00;5.23;;;;;;;;;;5091645;28;20412;-45
2023/03/18 06:53:05;;;;;;;12.00;5.17;;;;;;;;;;5087313;28;20463;-45
2023/03/18 06:55:31;;;;;;;8.50;5.40;;;;;;;;;;5092528;28;20961;-45
2023/03/18 06:57:57;;;;;;;9.50;5.57;;;;;;;;;;5087187;28;20421;-44
2023/03/18 07:00:24;;;;;;;7.30;5.43;;;;;;;;;;5094653;28;20487;-45
2023/03/18 07:02:51;;;;;;;7.17;5.20;;;;;;;;;;5090454;28;20436;-45
2023/03/18 07:05:17;;;;;;;5.73;5.23;;;;;;;;;;5093859;28;20408;-45
2023/03/18 07:07:43;;;;;;;9.80;5.50;;;;;;;;;;5091526;28;20785;-45
2023/03/18 07:10:14;;;;;;;5.10;4.67;;;;;;;;;;5091141;28;20410;-45
2023/03/18 07:12:40;;;;;;;6.37;5.17;;;;;;;;;;5091787;28;20436;-45
2023/03/18 07:15:06;;;;;;;8.00;5.50;;;;;;;;;;5090095;28;20787;-45
2023/03/18 07:17:32;;;;;;;11.00;5.33;;;;;;;;;;5091578;28;20396;-45
2023/03/18 07:19:58;;;;;;;5.73;5.00;;;;;;;;;;5091768;28;20412;-45
2023/03/18 07:22:25;;;;;;;8.90;6.63;;;;;;;;;;5091795;28;20430;-45
2023/03/18 07:24:51;;;;;;;10.40;4.97;;;;;;;;;;5093360;28;20915;-45
2023/03/18 07:27:17;;;;;;;7.20;5.00;;;;;;;;;;5090796;28;20429;-45
2023/03/18 07:29:43;;;;;;;4.50;4.10;;;;;;;;;;5091816;28;20423;-45
2023/03/18 07:32:09;;;;;;;6.80;5.00;;;;;;;;;;5091119;28;20429;-44
2023/03/18 07:34:35;;;;;;;5.07;4.30;;;;;;;;;;5091742;28;20550;-45
2023/03/18 07:37:01;;;;;;;8.57;5.23;;;;;;;;;;5091604;28;20409;-45
2023/03/18 07:39:27;;;;;;;6.53;5.33;;;;;;;;;;5091489;28;20405;-45
2023/03/18 07:41:53;;;;;;;7.90;4.80;;;;;;;;;;5087053;28;20427;-45
2023/03/18 07:44:20;;;;;;;4.70;4.30;;;;;;;;;;5090744;28;20549;-45
2023/03/18 07:46:46;;;;;;;5.73;4.37;;;;;;;;;;5089051;28;20421;-45
2023/03/18 07:49:12;;;;;;;6.43;4.30;;;;;;;;;;5091604;28;20510;-45
2023/03/18 07:51:38;;;;;;;7.50;5.23;;;;;;;;;;5091110;28;20506;-45
2023/03/18 07:54:04;;;;;;;7.67;4.17;;;;;;;;;;5088138;28;20505;-46
2023/03/18 07:56:30;;;;;;;5.53;4.50;;;;;;;;;;5091254;28;20406;-45
2023/03/18 07:58:56;;;;;;;5.80;4.80;;;;;;;;;;5084252;28;20430;-45
2023/03/18 08:01:22;;;;;;;4.07;3.60;;;;;;;;;;5084956;28;20412;-45
2023/03/18 08:03:48;;;;;;;7.13;4.30;;;;;;;;;;5089674;28;20426;-45
2023/03/18 08:06:15;;;;;;;4.40;3.70;;;;;;;;;;5091089;28;20415;-45
2023/03/18 08:08:42;;;;;;;4.20;3.70;;;;;;;;;;5090212;28;20415;-45
2023/03/18 08:11:09;;;;;;;3.57;3.27;;;;;;;;;;5095975;28;20410;-45
2023/03/18 08:13:35;;;;;;;4.47;3.80;;;;;;;;;;5090489;28;20470;-45
2023/03/18 08:16:01;;;;;;;5.57;3.60;;;;;;;;;;5097794;28;20442;-45
2023/03/18 08:18:27;;;;;;;3.73;3.23;;;;;;;;;;5095128;28;20430;-45
2023/03/18 08:20:54;;;;;;;6.23;3.50;;;;;;;;;;5094507;28;20410;-45
2023/03/18 08:23:20;;;;;;;4.90;3.53;;;;;;;;;;5087080;28;20409;-45
2023/03/18 08:25:49;;;;;;;4.30;3.53;;;;;;;;;;5093674;28;20487;-45
2023/03/18 08:28:16;;;;;;;3.63;3.27;;;;;;;;;;5089391;28;20434;-45
2023/03/18 08:30:42;;;;;;;4.43;3.60;;;;;;;;;;5096069;28;20434;-45
2023/03/18 08:33:08;;;;;;;4.90;3.13;;;;;;;;;;5091796;28;20971;-45
2023/03/18 08:35:35;;;;;;;4.20;3.80;;;;;;;;;;5091712;28;20422;-45
2023/03/18 08:38:01;;;;;;;6.27;3.30;;;;;;;;;;5093030;28;20691;-45
2023/03/18 08:40:27;;;;;;;4.23;3.83;;;;;;;;;;5088260;28;20402;-45
2023/03/18 08:42:53;;;;;;;6.00;3.77;;;;;;;;;;5086544;28;20410;-45
2023/03/18 08:45:20;;;;;;;4.50;3.93;;;;;;;;;;5093408;28;20472;-45
2023/03/18 08:47:45;;;;;;;5.10;3.77;;;;;;;;;;5094583;28;20422;-45
2023/03/18 08:50:13;;;;;;;4.23;3.30;;;;;;;;;;5090015;28;20411;-45
2023/03/18 08:52:40;;;;;;;4.00;3.70;;;;;;;;;;5092817;28;20450;-45
2023/03/18 08:55:06;;;;;;;3.47;3.10;;;;;;;;;;5094313;28;20406;-45
2023/03/18 08:57:33;;;;;;;8.63;3.60;;;;;;;;;;5096391;28;20430;-45
2023/03/18 08:59:59;;;;;;;5.23;3.50;;;;;;;;;;5088665;28;20916;-45
2023/03/18 09:02:26;;;;;;;4.10;3.70;;;;;;;;;;5092659;28;20750;-45
2023/03/18 09:04:53;;;;;;;4.13;3.73;;;;;;;;;;5094000;28;20506;-45
2023/03/18 09:07:19;;;;;;;5.67;4.47;;;;;;;;;;5097261;28;20407;-45
2023/03/18 09:09:45;;;;;;;3.97;3.60;;;;;;;;;;5093757;28;20419;-45
2023/03/18 09:12:12;;;;;;;4.03;3.40;;;;;;;;;;5097546;28;20423;-45
2023/03/18 09:14:39;;;;;;;3.60;3.13;;;;;;;;;;5094041;28;20497;-45
2023/03/18 09:17:05;;;;;;;3.87;3.57;;;;;;;;;;5094035;28;20412;-45
2023/03/18 09:19:31;;;;;;;4.40;3.50;;;;;;;;;;5093560;28;20411;-45
2023/03/18 09:21:58;;;;;;;11.87;3.20;;;;;;;;;;5092061;28;20430;-45
2023/03/18 09:24:24;;;;;;;4.27;3.90;;;;;;;;;;5094207;28;20499;-46
2023/03/18 09:26:50;;;;;;;4.70;4.30;;;;;;;;;;5092927;28;20407;-45
2023/03/18 09:29:16;;;;;;;3.57;3.27;;;;;;;;;;5091433;28;20782;-45
2023/03/18 09:31:42;;;;;;;5.10;4.30;;;;;;;;;;5096380;28;20491;-45
2023/03/18 09:34:12;;;;;;;5.50;4.80;;;;;;;;;;5093678;28;20550;-45
2023/03/18 09:36:38;;;;;;;4.60;3.60;;;;;;;;;;5095326;28;20411;-45
2023/03/18 09:39:05;;;;;;;4.03;3.63;;;;;;;;;;5093598;28;20997;-45
2023/03/18 09:41:37;;;;;;;5.60;3.80;;;;;;;;;;5093174;28;20411;-45
2023/03/18 09:44:11;;;;;;;4.73;4.20;;;;;;;;;;5093693;28;20474;-45
2023/03/18 09:46:44;;;;;;;4.13;3.80;;;;;;;;;;5087243;28;20930;-45
2023/03/18 09:49:16;;;;;;;4.20;3.50;;;;;;;;;;5085705;28;20387;-45
2023/03/18 09:51:45;;;;;;;5.00;3.37;;;;;;;;;;5092050;28;20429;-45
2023/03/18 09:54:13;;;;;;;4.00;3.30;;;;;;;;;;5091512;28;20546;-45
2023/03/18 09:56:40;;;;;;;5.83;3.33;;;;;;;;;;5094411;28;20414;-45
2023/03/18 09:59:15;;;;;;;4.00;3.37;;;;;;;;;;5092123;28;20947;-45
2023/03/18 10:01:42;;;;;;;3.60;3.30;;;;;;;;;;5090613;28;20426;-46
2023/03/18 10:04:15;;;;;;;5.30;3.60;;;;;;;;;;5093404;28;20438;-45
2023/03/18 10:06:43;;;;;;;4.43;3.27;;;;;;;;;;5093304;28;20414;-45
2023/03/18 10:09:16;;;;;;;3.03;2.67;;;;;;;;;;5084963;28;20516;-46
2023/03/18 10:11:44;;;;;;;3.37;3.17;;;;;;;;;;5092143;28;20454;-46
2023/03/18 10:14:20;;;;;;;4.30;3.03;;;;;;;;;;5081658;28;20549;-46
2023/03/18 10:17:06;;;;;;;4.10;2.77;;;;;;;;;;5089136;28;20471;-46
2023/03/18 10:19:32;;;;;;;3.67;2.90;;;;;;;;;;5092951;28;20453;-46
2023/03/18 10:22:08;;;;;;;2.93;2.70;;;;;;;;;;5092009;28;20412;-46
2023/03/18 10:24:42;;;;;;;3.00;2.80;;;;;;;;;;5092961;28;20419;-47
2023/03/18 10:27:08;;;;;;;3.80;2.70;;;;;;;;;;5101100;28;20414;-46
2023/03/18 10:29:37;;;;;;;2.87;2.40;;;;;;;;;;5092711;28;20415;-45
2023/03/18 10:32:03;;;;;;;3.77;2.83;;;;;;;;;;5092399;28;20184;-45
2023/03/18 10:34:33;;;;;;;3.00;2.70;;;;;;;;;;5092210;28;20807;-44
2023/03/18 10:37:02;;;;;;;6.50;3.17;;;;;;;;;;5095536;28;20418;-43
2023/03/18 10:39:29;;;;;;;4.60;2.63;;;;;;;;;;5092564;28;20590;-44
2023/03/18 10:41:57;;;;;;;3.70;2.43;;;;;;;;;;5091725;28;20457;-44
2023/03/18 10:44:41;;;;;;;2.70;2.50;;;;;;;;;;5092632;28;20399;-47
2023/03/18 10:47:07;;;;;;;4.10;3.13;;;;;;;;;;5092214;28;20395;-44
2023/03/18 10:49:38;;;;;;;2.70;2.50;;;;;;;;;;5092516;28;20414;-43
2023/03/18 10:52:09;;;;;;;3.73;2.60;;;;;;;;;;5098364;28;20528;-44
2023/03/18 10:54:49;;;;;;;3.73;2.73;;;;;;;;;;5092662;28;20970;-43
2023/03/18 10:57:15;;;;;;;2.33;2.13;;;;;;;;;;5084925;28;20435;-45
2023/03/18 10:59:46;;;;;;;2.70;2.50;;;;;;;;;;5091195;28;20442;-44
2023/03/18 11:02:19;;;;;;;3.57;2.30;;;;;;;;;;5091075;28;20471;-43
2023/03/18 11:04:49;;;;;;;2.60;2.23;;;;;;;;;;5091392;28;20833;-45
2023/03/18 11:07:22;;;;;;;2.20;2.10;;;;;;;;;;5092164;28;20408;-45
2023/03/18 11:09:48;;;;;;;2.70;2.13;;;;;;;;;;5092353;28;20898;-46
2023/03/18 11:12:19;;;;;;;2.50;2.30;;;;;;;;;;5097045;28;20784;-44
2023/03/18 11:14:49;;;;;;;2.70;2.20;;;;;;;;;;5091000;28;20459;-44
2023/03/18 11:17:41;;;;;;;2.50;2.30;;;;;;;;;;5097257;28;20761;-44
2023/03/18 11:20:18;;;;;;;1.87;1.77;;;;;;;;;;5086740;28;20426;-44
2023/03/18 11:22:45;;;;;;;2.40;2.20;;;;;;;;;;5091805;28;20434;-44
2023/03/18 11:25:15;;;;;;;3.47;2.27;;;;;;;;;;5091983;28;20403;-44
2023/03/18 11:27:44;;;;;;;2.40;2.20;;;;;;;;;;5091279;28;20522;-44
2023/03/18 11:30:16;;;;;;;4.27;2.10;;;;;;;;;;5081727;28;20427;-43
2023/03/18 11:32:50;;;;;;;2.30;2.17;;;;;;;;;;5091484;28;20430;-46
2023/03/18 11:35:21;;;;;;;2.00;1.80;;;;;;;;;;5082349;28;20896;-44
2023/03/18 11:37:47;;;;;;;1.90;1.70;;;;;;;;;;5093315;28;20403;-44
2023/03/18 11:40:13;;;;;;;2.00;1.90;;;;;;;;;;5091162;28;20411;-43
2023/03/18 11:42:40;;;;;;;2.37;2.17;;;;;;;;;;5094700;28;20432;-44
2023/03/18 11:45:25;;;;;;;1.97;1.30;;;;;;;;;;5091745;28;20174;-47
2023/03/18 11:47:51;;;;;;;1.40;1.30;;;;;;;;;;5091469;28;20414;-44
2023/03/18 11:50:24;;;;;;;2.40;1.60;;;;;;;;;;5090523;28;20410;-44
2023/03/18 11:52:51;;;;;;;3.57;1.70;;;;;;;;;;5091497;28;20530;-47
2023/03/18 11:55:28;;;;;;;1.73;1.30;;;;;;;;;;5091559;28;20419;-48
2023/03/18 11:58:14;;;;;;;1.70;1.60;;;;;;;;;;5091522;28;20457;-43
2023/03/18 12:00:47;;;;;;;1.30;1.20;;;;;;;;;;5087354;28;20430;-43
2023/03/18 12:03:16;;;;;;;1.73;1.53;;;;;;;;;;5078662;28;20443;-45
2023/03/18 12:05:45;;;;;;;1.73;1.50;;;;;;;;;;5091703;28;20776;-44
2023/03/18 12:08:17;;;;;;;1.57;1.47;;;;;;;;;;5090998;28;20775;-44
2023/03/18 12:10:53;;;;;;;2.40;1.80;;;;;;;;;;5090151;28;21007;-44
2023/03/18 12:13:30;;;;;;;1.37;1.27;;;;;;;;;;5091029;28;20561;-44
2023/03/18 12:15:59;;;;;;;1.93;1.20;;;;;;;;;;5091352;28;20422;-44
2023/03/18 12:18:34;;;;;;;1.33;1.23;;;;;;;;;;5091396;28;20421;-44
2023/03/18 12:21:24;;;;;;;2.70;1.43;;;;;;;;;;5090553;28;20415;-43
2023/03/18 12:24:04;;;;;;;1.57;1.40;;;;;;;;;;5079922;28;21000;-44
2023/03/18 12:26:39;;;;;;;2.33;1.50;;;;;;;;;;5091405;28;20414;-44
2023/03/18 12:29:24;;;;;;;2.93;1.53;;;;;;;;;;5091437;28;20966;-44
2023/03/18 12:31:58;;;;;;;2.80;1.70;;;;;;;;;;5084031;28;20416;-44
2023/03/18 12:34:43;;;;;;;1.40;1.30;;;;;;;;;;5085581;28;20508;-45
2023/03/18 12:37:15;;;;;;;2.10;1.70;;;;;;;;;;5083412;28;20407;-44
2023/03/18 12:39:59;;;;;;;1.80;1.20;;;;;;;;;;5091050;28;20438;-43
2023/03/18 12:42:41;;;;;;;2.43;2.10;;;;;;;;;;5083801;28;20480;-43
2023/03/18 12:45:13;;;;;;;1.73;1.60;;;;;;;;;;5087413;28;20468;-44
2023/03/18 12:47:45;;;;;;;1.90;1.43;;;;;;;;;;5091174;28;20407;-44
2023/03/18 12:50:11;;;;;;;3.43;2.23;;;;;;;;;;5083599;28;20423;-44
2023/03/18 12:52:39;;;;;;;2.60;1.70;;;;;;;;;;5089875;28;20540;-45
2023/03/18 12:55:11;;;;;;;2.40;1.40;;;;;;;;;;5089950;28;20517;-44
2023/03/18 12:57:59;;;;;;;2.30;2.10;;;;;;;;;;5094333;28;20825;-45
2023/03/18 13:00:33;;;;;;;2.50;1.73;;;;;;;;;;5084890;28;20419;-43
2023/03/18 13:03:03;;;;;;;3.77;2.00;;;;;;;;;;5095113;28;20435;-43
2023/03/18 13:06:03;;;;;;;2.13;1.87;;;;;;;;;;5094259;28;20475;-43
2023/03/18 13:08:32;;;;;;;4.27;2.20;;;;;;;;;;5085700;28;20510;-44
2023/03/18 13:11:08;;;;;;;2.00;1.80;;;;;;;;;;5093807;28;20427;-45
2023/03/18 13:13:37;;;;;;;2.57;1.67;;;;;;;;;;5094339;28;20459;-48
2023/03/18 13:16:04;;;;;;;2.00;1.80;;;;;;;;;;5094281;28;20430;-46
2023/03/18 13:18:35;;;;;;;1.67;1.57;;;;;;;;;;5101395;28;20403;-43
2023/03/18 13:21:01;;;;;;;2.03;1.83;;;;;;;;;;5091986;28;20477;-43
2023/03/18 13:23:27;;;;;;;2.00;1.70;;;;;;;;;;5100627;28;20983;-46
2023/03/18 13:26:31;;;;;;;2.40;1.77;;;;;;;;;;5094150;28;20453;-43
2023/03/18 13:29:00;;;;;;;1.50;1.40;;;;;;;;;;5071363;28;20409;-44
2023/03/18 13:31:31;;;;;;;2.07;1.60;;;;;;;;;;5063765;28;20451;-45
2023/03/18 13:34:16;;;;;;;2.00;1.90;;;;;;;;;;5082472;28;20569;-43
2023/03/18 13:36:51;;;;;;;1.80;1.40;;;;;;;;;;5093940;28;20905;-46
2023/03/18 13:39:20;;;;;;;2.03;1.50;;;;;;;;;;5093146;28;20498;-44
2023/03/18 13:41:56;;;;;;;1.63;1.47;;;;;;;;;;5093199;28;20511;-45
2023/03/18 13:44:26;;;;;;;2.10;2.00;;;;;;;;;;5099175;28;20406;-47
2023/03/18 13:46:54;;;;;;;2.03;1.83;;;;;;;;;;5093550;28;20406;-44
2023/03/18 13:49:22;;;;;;;2.37;1.90;;;;;;;;;;5093769;28;20426;-44
2023/03/18 13:51:51;;;;;;;1.80;1.70;;;;;;;;;;5091458;28;20422;-43
2023/03/18 13:54:19;;;;;;;2.40;1.70;;;;;;;;;;5089774;28;20463;-45
2023/03/18 13:56:51;;;;;;;3.87;1.70;;;;;;;;;;5087268;28;20407;-44
2023/03/18 13:59:32;;;;;;;1.67;1.57;;;;;;;;;;5091408;28;20906;-44
2023/03/18 14:02:17;;;;;;;3.60;1.90;;;;;;;;;;5090003;28;20507;-43
2023/03/18 14:04:48;;;;;;;2.03;1.60;;;;;;;;;;5094260;28;20418;-44
2023/03/18 14:07:16;;;;;;;2.40;2.20;;;;;;;;;;5089631;28;20422;-43
2023/03/18 14:10:06;;;;;;;2.23;1.77;;;;;;;;;;5096975;28;20479;-43
2023/03/18 14:12:32;;;;;;;3.90;2.10;;;;;;;;;;5084907;28;20799;-46
2023/03/18 14:15:21;;;;;;;2.77;1.87;;;;;;;;;;5092691;28;20779;-43
2023/03/18 14:17:57;;;;;;;4.40;1.60;;;;;;;;;;5094746;28;20433;-47
2023/03/18 14:20:26;;;;;;;2.10;1.67;;;;;;;;;;5085177;28;20434;-45
2023/03/18 14:22:53;;;;;;;1.63;1.53;;;;;;;;;;5093154;28;20433;-44
2023/03/18 14:25:34;;;;;;;1.77;1.67;;;;;;;;;;5092854;28;20405;-46
2023/03/18 14:28:06;;;;;;;5.73;1.83;;;;;;;;;;5096009;28;20427;-44
2023/03/18 14:30:36;;;;;;;4.43;1.77;;;;;;;;;;5092217;28;20427;-43
2023/03/18 14:33:02;;;;;;;7.43;1.60;;;;;;;;;;5095544;28;20786;-43
2023/03/18 14:35:46;;;;;;;2.33;1.80;;;;;;;;;;5092712;28;20412;-44
2023/03/18 14:38:19;;;;;;;3.37;1.60;;;;;;;;;;5085023;28;20830;-43
2023/03/18 14:40:46;;;;;;;1.83;1.60;;;;;;;;;;5091986;28;20521;-45
2023/03/18 14:43:22;;;;;;;3.23;1.77;;;;;;;;;;5092524;28;20437;-43
2023/03/18 14:45:48;;;;;;;1.43;1.33;;;;;;;;;;5090215;28;20908;-43
2023/03/18 14:48:24;;;;;;;2.00;1.80;;;;;;;;;;5094095;28;20396;-43
2023/03/18 14:50:54;;;;;;;2.07;1.87;;;;;;;;;;5090457;28;20402;-45